Time;durP1;ratioP1;P1;durP2;ratioP2;P2;SDS_P1;SDS_P2;PMS_P1;PMS_P2;Temp;Humidity;BMP_temperature;BMP_pressure;BME280_temperature;BME280_humidity;BME280_pressure;Samples;Min_cycle;Max_cycle;Signal;HPM_P1;HPM_P2
2022/11/14 00:02:07;;;;;;;4.22;2.33;;;;;;;;;;5067299;28;20109;-77
2022/11/14 00:04:33;;;;;;;3.42;2.22;;;;;;;;;;5086222;28;20532;-77
2022/11/14 00:06:59;;;;;;;3.45;2.70;;;;;;;;;;5085021;28;20033;-77
2022/11/14 00:09:26;;;;;;;4.30;2.80;;;;;;;;;;5064077;28;20021;-77
2022/11/14 00:11:52;;;;;;;3.38;2.50;;;;;;;;;;5066233;28;20135;-77
2022/11/14 00:14:19;;;;;;;3.40;2.80;;;;;;;;;;5068530;28;20016;-77
2022/11/14 00:16:45;;;;;;;5.78;2.88;;;;;;;;;;5086705;28;20028;-77
2022/11/14 00:19:11;;;;;;;4.28;2.90;;;;;;;;;;5065138;28;20123;-77
2022/11/14 00:21:37;;;;;;;2.88;2.20;;;;;;;;;;5065943;28;20052;-78
2022/11/14 00:24:04;;;;;;;3.72;2.17;;;;;;;;;;5067582;28;20032;-77
2022/11/14 00:26:30;;;;;;;4.50;2.40;;;;;;;;;;5082397;28;20048;-77
2022/11/14 00:28:56;;;;;;;3.78;2.60;;;;;;;;;;5083576;28;20028;-77
2022/11/14 00:31:22;;;;;;;4.60;2.58;;;;;;;;;;5064877;28;20020;-77
2022/11/14 00:33:48;;;;;;;3.58;2.30;;;;;;;;;;5065241;28;20032;-77
2022/11/14 00:36:15;;;;;;;4.68;2.72;;;;;;;;;;5069901;28;20036;-77
2022/11/14 00:38:41;;;;;;;3.78;2.50;;;;;;;;;;5068724;28;20038;-77
2022/11/14 00:41:07;;;;;;;3.47;2.25;;;;;;;;;;5070024;28;20029;-77
2022/11/14 00:43:33;;;;;;;4.03;2.90;;;;;;;;;;5067861;28;20021;-78
2022/11/14 00:45:59;;;;;;;6.10;2.40;;;;;;;;;;5064627;28;20082;-77
2022/11/14 00:48:25;;;;;;;3.90;1.95;;;;;;;;;;5070571;28;20116;-77
2022/11/14 00:50:51;;;;;;;3.08;2.22;;;;;;;;;;5069023;28;20552;-77
2022/11/14 00:53:17;;;;;;;5.53;2.45;;;;;;;;;;5080197;28;20113;-77
2022/11/14 00:55:43;;;;;;;4.88;2.67;;;;;;;;;;5063714;28;20025;-78
2022/11/14 00:58:10;;;;;;;3.25;2.22;;;;;;;;;;5068859;28;20381;-77
2022/11/14 01:00:36;;;;;;;2.17;1.95;;;;;;;;;;5086307;28;20021;-77
2022/11/14 01:03:02;;;;;;;4.90;2.08;;;;;;;;;;5069212;28;20035;-77
2022/11/14 01:05:28;;;;;;;2.72;2.05;;;;;;;;;;5067768;28;20031;-77
2022/11/14 01:07:54;;;;;;;3.70;1.98;;;;;;;;;;5078872;28;20067;-77
2022/11/14 01:10:21;;;;;;;4.03;2.20;;;;;;;;;;5070599;28;20070;-77
2022/11/14 01:12:47;;;;;;;4.28;2.30;;;;;;;;;;5081111;28;20020;-77
2022/11/14 01:15:13;;;;;;;4.47;2.28;;;;;;;;;;5059586;28;20076;-77
2022/11/14 01:17:39;;;;;;;3.90;2.30;;;;;;;;;;5069910;28;20024;-77
2022/11/14 01:20:05;;;;;;;4.10;2.80;;;;;;;;;;5066076;28;20055;-77
2022/11/14 01:22:32;;;;;;;3.20;2.30;;;;;;;;;;5065182;28;20499;-77
2022/11/14 01:24:58;;;;;;;4.10;2.40;;;;;;;;;;5069801;28;20036;-77
2022/11/14 01:27:24;;;;;;;4.60;2.72;;;;;;;;;;5079526;28;20132;-77
2022/11/14 01:29:51;;;;;;;3.72;2.58;;;;;;;;;;5063626;28;20056;-77
2022/11/14 01:32:17;;;;;;;4.25;2.45;;;;;;;;;;5071138;28;20563;-78
2022/11/14 01:34:43;;;;;;;4.07;2.13;;;;;;;;;;5067544;28;20028;-77
2022/11/14 01:37:09;;;;;;;2.90;2.60;;;;;;;;;;5069983;28;20036;-77
2022/11/14 01:39:35;;;;;;;3.53;2.35;;;;;;;;;;5069463;28;20024;-77
2022/11/14 01:42:01;;;;;;;4.03;2.38;;;;;;;;;;5066782;28;20028;-77
2022/11/14 01:44:43;;;;;;;5.88;2.75;;;;;;;;;;5065536;28;20066;-77
2022/11/14 01:47:10;;;;;;;4.80;2.90;;;;;;;;;;5078767;28;20029;-77
2022/11/14 01:49:38;;;;;;;4.38;2.47;;;;;;;;;;5064054;28;20032;-77
2022/11/14 01:52:25;;;;;;;4.38;2.42;;;;;;;;;;5083632;28;20120;-77
2022/11/14 01:54:52;;;;;;;5.25;2.58;;;;;;;;;;5069163;28;20423;-77
2022/11/14 01:57:21;;;;;;;6.03;2.60;;;;;;;;;;5080995;28;20036;-77
2022/11/14 01:59:49;;;;;;;4.38;2.35;;;;;;;;;;5071004;28;20024;-77
2022/11/14 02:02:17;;;;;;;4.75;2.40;;;;;;;;;;5066119;28;20034;-77
2022/11/14 02:04:45;;;;;;;4.80;3.20;;;;;;;;;;5062960;28;20073;-77
2022/11/14 02:07:12;;;;;;;3.85;2.45;;;;;;;;;;5066036;28;20029;-78
2022/11/14 02:09:39;;;;;;;4.93;2.83;;;;;;;;;;5079376;28;20520;-77
2022/11/14 02:12:06;;;;;;;4.85;2.60;;;;;;;;;;5065048;28;20017;-77
2022/11/14 02:14:33;;;;;;;3.83;2.70;;;;;;;;;;5059689;28;20013;-77
2022/11/14 02:16:59;;;;;;;3.28;2.70;;;;;;;;;;5065380;28;20028;-77
2022/11/14 02:19:25;;;;;;;6.75;2.78;;;;;;;;;;5079460;28;20505;-77
2022/11/14 02:21:51;;;;;;;8.57;3.10;;;;;;;;;;5069032;28;20491;-77
2022/11/14 02:24:17;;;;;;;5.45;3.20;;;;;;;;;;5064997;28;20024;-77
2022/11/14 02:26:43;;;;;;;4.00;2.75;;;;;;;;;;5064723;28;20143;-77
2022/11/14 02:29:10;;;;;;;5.32;2.40;;;;;;;;;;5077422;28;20116;-77
2022/11/14 02:31:36;;;;;;;5.85;2.90;;;;;;;;;;5063170;28;20030;-77
2022/11/14 02:34:02;;;;;;;4.32;2.47;;;;;;;;;;5067295;28;20450;-78
2022/11/14 02:36:29;;;;;;;5.78;2.90;;;;;;;;;;5062101;28;20052;-77
2022/11/14 02:38:55;;;;;;;4.20;2.60;;;;;;;;;;5065869;28;20120;-77
2022/11/14 02:41:21;;;;;;;3.55;2.30;;;;;;;;;;5067806;28;20043;-77
2022/11/14 02:43:47;;;;;;;4.03;2.30;;;;;;;;;;5065868;28;20025;-77
2022/11/14 02:46:13;;;;;;;5.43;2.95;;;;;;;;;;5056806;28;20360;-77
2022/11/14 02:48:39;;;;;;;7.68;3.33;;;;;;;;;;5080170;28;20078;-77
2022/11/14 02:51:05;;;;;;;6.25;2.95;;;;;;;;;;5058905;28;20043;-77
2022/11/14 02:53:31;;;;;;;3.72;2.55;;;;;;;;;;5067082;28;20028;-77
2022/11/14 02:55:57;;;;;;;3.63;2.78;;;;;;;;;;5084386;28;20064;-77
2022/11/14 02:58:23;;;;;;;4.97;2.78;;;;;;;;;;5067828;28;20470;-77
2022/11/14 03:00:49;;;;;;;3.95;3.53;;;;;;;;;;5061464;28;20033;-77
2022/11/14 03:03:16;;;;;;;7.15;2.92;;;;;;;;;;5060679;28;20028;-77
2022/11/14 03:05:42;;;;;;;2.92;2.25;;;;;;;;;;5082749;28;20034;-77
2022/11/14 03:08:08;;;;;;;4.85;2.58;;;;;;;;;;5060154;28;20082;-77
2022/11/14 03:10:34;;;;;;;3.83;2.80;;;;;;;;;;5079395;28;20517;-77
2022/11/14 03:13:00;;;;;;;4.65;2.65;;;;;;;;;;5056312;28;20029;-77
2022/11/14 03:15:26;;;;;;;4.32;2.65;;;;;;;;;;5067152;28;20047;-77
2022/11/14 03:17:52;;;;;;;6.45;2.75;;;;;;;;;;5065887;28;20406;-77
2022/11/14 03:20:19;;;;;;;6.75;3.20;;;;;;;;;;5082125;28;20077;-77
2022/11/14 03:22:45;;;;;;;6.25;3.13;;;;;;;;;;5075945;28;20107;-77
2022/11/14 03:25:11;;;;;;;4.55;3.00;;;;;;;;;;5058034;28;20308;-77
2022/11/14 03:27:37;;;;;;;4.97;3.00;;;;;;;;;;5067903;28;20044;-77
2022/11/14 03:30:04;;;;;;;3.20;2.58;;;;;;;;;;5067178;28;20056;-77
2022/11/14 03:32:30;;;;;;;4.03;2.75;;;;;;;;;;5064948;28;20020;-78
2022/11/14 03:34:57;;;;;;;5.00;2.80;;;;;;;;;;5068612;28;20051;-77
2022/11/14 03:37:23;;;;;;;4.10;2.92;;;;;;;;;;5080607;28;20017;-77
2022/11/14 03:39:49;;;;;;;4.03;3.00;;;;;;;;;;5069005;28;20022;-77
2022/11/14 03:42:16;;;;;;;4.63;3.35;;;;;;;;;;5066134;28;20032;-77
2022/11/14 03:44:42;;;;;;;7.43;3.22;;;;;;;;;;5063343;28;20036;-77
2022/11/14 03:47:08;;;;;;;3.80;2.80;;;;;;;;;;5058192;28;20523;-77
2022/11/14 03:49:34;;;;;;;6.65;3.38;;;;;;;;;;5065440;28;20428;-77
2022/11/14 03:52:00;;;;;;;5.00;3.30;;;;;;;;;;5066324;28;20557;-77
2022/11/14 03:54:26;;;;;;;4.68;2.95;;;;;;;;;;5074176;28;20030;-77
2022/11/14 03:56:52;;;;;;;5.20;3.03;;;;;;;;;;5063981;28;20013;-77
2022/11/14 03:59:18;;;;;;;4.78;3.28;;;;;;;;;;5065872;28;20024;-77
2022/11/14 04:01:45;;;;;;;6.97;2.95;;;;;;;;;;5060842;28;20476;-77
2022/11/14 04:04:11;;;;;;;4.28;2.83;;;;;;;;;;5053088;28;20033;-76
2022/11/14 04:06:37;;;;;;;4.03;2.95;;;;;;;;;;5059520;28;20462;-77
2022/11/14 04:09:04;;;;;;;4.53;3.00;;;;;;;;;;5082011;28;20037;-77
2022/11/14 04:11:30;;;;;;;4.47;2.78;;;;;;;;;;5065515;28;20044;-76
2022/11/14 04:13:56;;;;;;;4.82;2.90;;;;;;;;;;5059012;28;20477;-77
2022/11/14 04:16:22;;;;;;;3.45;2.92;;;;;;;;;;5054717;28;20025;-77
2022/11/14 04:18:48;;;;;;;6.10;3.30;;;;;;;;;;5063612;28;20074;-77
2022/11/14 04:21:14;;;;;;;6.00;2.80;;;;;;;;;;5064997;28;20033;-77
2022/11/14 04:23:40;;;;;;;4.28;3.05;;;;;;;;;;5061155;28;20696;-77
2022/11/14 04:26:06;;;;;;;3.88;2.83;;;;;;;;;;5066709;28;20051;-77
2022/11/14 04:28:32;;;;;;;3.85;3.13;;;;;;;;;;5060123;28;20105;-76
2022/11/14 04:30:59;;;;;;;3.97;3.20;;;;;;;;;;5065293;28;20052;-77
2022/11/14 04:33:25;;;;;;;6.28;3.65;;;;;;;;;;5061180;28;20444;-77
2022/11/14 04:35:51;;;;;;;6.45;3.35;;;;;;;;;;5061813;28;20086;-77
2022/11/14 04:38:17;;;;;;;5.28;3.13;;;;;;;;;;5065661;28;20492;-77
2022/11/14 04:40:53;;;;;;;5.15;3.63;;;;;;;;;;5063304;28;20094;-77
2022/11/14 04:43:19;;;;;;;;;;;;;;;;;;5064356;28;20086;-77
2022/11/14 04:45:45;;;;;;;5.03;3.30;;;;;;;;;;5070667;28;20369;-77
2022/11/14 04:48:11;;;;;;;5.25;3.70;;;;;;;;;;5084209;28;20028;-77
2022/11/14 04:50:37;;;;;;;4.93;3.67;;;;;;;;;;5066019;28;20024;-77
2022/11/14 04:53:03;;;;;;;4.60;3.65;;;;;;;;;;5080511;28;20060;-76
2022/11/14 04:55:29;;;;;;;4.82;3.58;;;;;;;;;;5070023;28;20025;-77
2022/11/14 04:57:56;;;;;;;5.45;3.75;;;;;;;;;;5061589;28;20033;-78
2022/11/14 05:00:23;;;;;;;5.10;3.85;;;;;;;;;;5068242;28;20028;-78
2022/11/14 05:02:49;;;;;;;4.95;3.90;;;;;;;;;;5086090;28;20016;-77
2022/11/14 05:05:15;;;;;;;5.88;4.20;;;;;;;;;;5070055;28;20039;-77
2022/11/14 05:07:41;;;;;;;4.22;3.55;;;;;;;;;;5067141;28;20032;-77
2022/11/14 05:10:08;;;;;;;5.15;3.80;;;;;;;;;;5074672;28;20035;-77
2022/11/14 05:12:34;;;;;;;5.18;4.10;;;;;;;;;;5069716;28;20252;-78
2022/11/14 05:15:00;;;;;;;6.82;4.70;;;;;;;;;;5062992;28;20024;-77
2022/11/14 05:17:27;;;;;;;4.32;3.60;;;;;;;;;;5072124;28;20029;-77
2022/11/14 05:19:53;;;;;;;5.75;4.13;;;;;;;;;;5069337;28;20052;-77
2022/11/14 05:22:19;;;;;;;6.40;4.03;;;;;;;;;;5084306;28;20062;-77
2022/11/14 05:24:45;;;;;;;7.28;4.05;;;;;;;;;;5069951;28;20059;-78
2022/11/14 05:27:11;;;;;;;7.18;3.65;;;;;;;;;;5070996;28;20083;-77
2022/11/14 05:29:37;;;;;;;4.28;3.13;;;;;;;;;;5070648;28;20028;-77
2022/11/14 05:32:04;;;;;;;5.43;3.30;;;;;;;;;;5066555;28;20024;-77
2022/11/14 05:34:30;;;;;;;3.53;3.10;;;;;;;;;;5087336;28;20025;-77
2022/11/14 05:36:56;;;;;;;4.47;3.00;;;;;;;;;;5084111;28;20025;-77
2022/11/14 05:39:22;;;;;;;6.13;3.53;;;;;;;;;;5068092;28;20036;-77
2022/11/14 05:41:48;;;;;;;5.32;3.55;;;;;;;;;;5060567;28;20390;-79
2022/11/14 05:44:14;;;;;;;5.13;3.75;;;;;;;;;;5064724;28;20024;-77
2022/11/14 05:46:40;;;;;;;3.72;3.33;;;;;;;;;;5064699;28;20059;-78
2022/11/14 05:49:06;;;;;;;3.78;3.00;;;;;;;;;;5069134;28;20029;-78
2022/11/14 05:51:33;;;;;;;4.22;3.03;;;;;;;;;;5066153;28;20034;-77
2022/11/14 05:53:59;;;;;;;7.38;3.53;;;;;;;;;;5062568;28;20103;-77
2022/11/14 05:56:25;;;;;;;5.82;3.40;;;;;;;;;;5066928;28;20060;-76
2022/11/14 05:58:51;;;;;;;4.15;3.42;;;;;;;;;;5070084;28;20024;-77
2022/11/14 06:01:18;;;;;;;4.25;3.10;;;;;;;;;;5083687;28;20021;-77
2022/11/14 06:03:45;;;;;;;3.72;2.80;;;;;;;;;;5067358;28;20037;-79
2022/11/14 06:06:14;;;;;;;5.75;3.10;;;;;;;;;;5065516;28;20121;-78
2022/11/14 06:08:40;;;;;;;5.47;3.20;;;;;;;;;;5065189;28;20111;-77
2022/11/14 06:11:07;;;;;;;5.38;3.70;;;;;;;;;;5085152;28;20035;-78
2022/11/14 06:13:34;;;;;;;5.75;3.30;;;;;;;;;;5069749;28;20369;-78
2022/11/14 06:16:00;;;;;;;4.47;3.55;;;;;;;;;;5083624;28;20837;-78
2022/11/14 06:18:27;;;;;;;6.65;3.53;;;;;;;;;;5067008;28;20031;-78
2022/11/14 06:20:54;;;;;;;4.60;3.47;;;;;;;;;;5067055;28;20537;-78
2022/11/14 06:23:20;;;;;;;4.32;3.28;;;;;;;;;;5060381;28;20033;-78
2022/11/14 06:25:46;;;;;;;6.55;3.85;;;;;;;;;;5068369;28;20389;-78
2022/11/14 06:28:12;;;;;;;4.32;3.90;;;;;;;;;;5067931;28;20058;-77
2022/11/14 06:30:40;;;;;;;8.98;4.05;;;;;;;;;;5065359;28;20561;-78
2022/11/14 06:33:06;;;;;;;6.20;4.25;;;;;;;;;;5078663;28;20397;-77
2022/11/14 06:35:32;;;;;;;4.80;3.38;;;;;;;;;;5072558;28;20035;-78
2022/11/14 06:38:01;;;;;;;6.25;4.05;;;;;;;;;;5084876;28;20021;-78
2022/11/14 06:40:27;;;;;;;6.97;3.97;;;;;;;;;;5066055;28;20040;-78
2022/11/14 06:42:56;;;;;;;6.90;4.38;;;;;;;;;;5065214;28;20389;-78
2022/11/14 06:45:22;;;;;;;7.95;4.30;;;;;;;;;;5066022;28;20064;-77
2022/11/14 06:47:48;;;;;;;4.75;3.65;;;;;;;;;;5064048;28;20111;-78
2022/11/14 06:50:14;;;;;;;5.90;4.20;;;;;;;;;;5068433;28;20044;-78
2022/11/14 06:52:40;;;;;;;4.60;3.47;;;;;;;;;;5066839;28;20485;-77
2022/11/14 06:55:07;;;;;;;6.70;3.80;;;;;;;;;;5059625;28;20021;-78
2022/11/14 06:57:33;;;;;;;6.18;3.20;;;;;;;;;;5083124;28;20040;-78
2022/11/14 07:00:00;;;;;;;6.45;3.45;;;;;;;;;;5066159;28;20052;-78
2022/11/14 07:02:26;;;;;;;4.50;2.90;;;;;;;;;;5067369;28;20035;-78
2022/11/14 07:04:52;;;;;;;5.72;3.13;;;;;;;;;;5066719;28;20043;-77
2022/11/14 07:07:18;;;;;;;3.78;2.72;;;;;;;;;;5077960;28;20035;-78
2022/11/14 07:09:44;;;;;;;3.53;2.75;;;;;;;;;;5065459;28;20040;-77
2022/11/14 07:12:10;;;;;;;5.13;3.65;;;;;;;;;;5086054;28;20056;-78
2022/11/14 07:14:36;;;;;;;5.07;2.85;;;;;;;;;;5066445;28;20074;-78
2022/11/14 07:17:03;;;;;;;22.60;3.67;;;;;;;;;;5065765;28;20024;-78
2022/11/14 07:19:29;;;;;;;4.43;2.72;;;;;;;;;;5067221;28;20032;-78
2022/11/14 07:21:55;;;;;;;2.72;2.30;;;;;;;;;;5065332;28;20052;-77
2022/11/14 07:24:21;;;;;;;3.72;2.60;;;;;;;;;;5066990;28;20090;-78
2022/11/14 07:26:47;;;;;;;3.15;2.85;;;;;;;;;;5079453;28;20559;-77
2022/11/14 07:29:13;;;;;;;4.68;3.10;;;;;;;;;;5065874;28;20028;-77
2022/11/14 07:31:40;;;;;;;4.68;2.50;;;;;;;;;;5063347;28;20470;-78
2022/11/14 07:34:06;;;;;;;6.70;3.08;;;;;;;;;;5080284;28;20022;-78
2022/11/14 07:36:32;;;;;;;6.57;2.70;;;;;;;;;;5060221;28;20059;-77
2022/11/14 07:38:58;;;;;;;3.30;2.35;;;;;;;;;;5066230;28;20039;-77
2022/11/14 07:41:24;;;;;;;4.00;2.78;;;;;;;;;;5077025;28;20035;-78
2022/11/14 07:43:50;;;;;;;3.72;2.30;;;;;;;;;;5082634;28;20500;-77
2022/11/14 07:46:17;;;;;;;6.40;2.50;;;;;;;;;;5065154;28;20078;-78
2022/11/14 07:48:44;;;;;;;2.95;2.50;;;;;;;;;;5066288;28;20096;-77
2022/11/14 07:51:14;;;;;;;3.97;2.13;;;;;;;;;;5065882;28;20060;-78
2022/11/14 07:53:40;;;;;;;2.78;2.40;;;;;;;;;;5066164;28;20510;-78
2022/11/14 07:56:10;;;;;;;3.47;2.40;;;;;;;;;;5066608;28;20028;-78
2022/11/14 07:58:37;;;;;;;3.60;2.67;;;;;;;;;;5064712;28;20104;-78
2022/11/14 08:01:04;;;;;;;4.75;2.80;;;;;;;;;;5076645;28;20024;-79
2022/11/14 08:03:30;;;;;;;4.07;2.90;;;;;;;;;;5068398;28;20028;-78
2022/11/14 08:06:00;;;;;;;4.38;3.05;;;;;;;;;;5065087;28;20064;-78
2022/11/14 08:08:26;;;;;;;4.15;2.63;;;;;;;;;;5063942;28;20056;-78
2022/11/14 08:10:55;;;;;;;3.97;2.30;;;;;;;;;;5066314;28;20101;-78
2022/11/14 08:13:21;;;;;;;2.65;2.00;;;;;;;;;;5067121;28;20028;-78
2022/11/14 08:15:47;;;;;;;3.15;2.03;;;;;;;;;;5081749;28;20025;-79
2022/11/14 08:18:13;;;;;;;4.03;2.45;;;;;;;;;;5065421;28;20043;-78
2022/11/14 08:20:39;;;;;;;4.30;2.83;;;;;;;;;;5067469;28;20028;-78
2022/11/14 08:23:06;;;;;;;6.43;3.08;;;;;;;;;;5069212;28;20052;-78
2022/11/14 08:25:32;;;;;;;4.53;2.10;;;;;;;;;;5066892;28;20082;-78
2022/11/14 08:27:59;;;;;;;3.63;2.47;;;;;;;;;;5066939;28;20049;-78
2022/11/14 08:30:25;;;;;;;5.28;2.25;;;;;;;;;;5080862;28;20097;-80
2022/11/14 08:32:51;;;;;;;6.07;2.70;;;;;;;;;;5066424;28;20036;-78
2022/11/14 08:35:18;;;;;;;4.13;2.38;;;;;;;;;;5077235;28;20051;-79
2022/11/14 08:37:44;;;;;;;4.90;2.03;;;;;;;;;;5067394;28;20093;-78
2022/11/14 08:40:10;;;;;;;3.75;2.33;;;;;;;;;;5067515;28;20071;-78
2022/11/14 08:42:36;;;;;;;3.08;2.00;;;;;;;;;;5080156;28;20028;-78
2022/11/14 08:45:03;;;;;;;4.45;2.33;;;;;;;;;;5067512;28;20040;-78
2022/11/14 08:47:29;;;;;;;3.50;2.20;;;;;;;;;;5082300;28;20032;-77
2022/11/14 08:49:55;;;;;;;4.35;2.10;;;;;;;;;;5079522;28;20025;-79
2022/11/14 08:52:21;;;;;;;4.15;2.40;;;;;;;;;;5064637;28;20538;-78
2022/11/14 08:54:47;;;;;;;3.15;2.03;;;;;;;;;;5067367;28;20025;-79
2022/11/14 08:57:14;;;;;;;4.57;1.95;;;;;;;;;;5069788;28;20074;-78
2022/11/14 08:59:43;;;;;;;4.25;2.10;;;;;;;;;;5068195;28;20032;-79
2022/11/14 09:02:10;;;;;;;2.88;2.20;;;;;;;;;;5071971;28;20040;-79
2022/11/14 09:04:36;;;;;;;4.43;2.03;;;;;;;;;;5070463;28;20029;-79
2022/11/14 09:07:02;;;;;;;6.82;2.33;;;;;;;;;;5070754;28;20036;-79
2022/11/14 09:09:29;;;;;;;3.17;2.30;;;;;;;;;;5073731;28;20350;-80
2022/11/14 09:11:55;;;;;;;4.72;3.00;;;;;;;;;;5069932;28;20107;-80
2022/11/14 09:14:21;;;;;;;3.38;2.08;;;;;;;;;;5067936;28;20048;-79
2022/11/14 09:16:47;;;;;;;6.18;2.22;;;;;;;;;;5061272;28;20028;-78
2022/11/14 09:19:13;;;;;;;3.28;2.38;;;;;;;;;;5060665;28;20506;-79
2022/11/14 09:21:40;;;;;;;5.35;2.85;;;;;;;;;;5066526;28;20024;-78
2022/11/14 09:24:06;;;;;;;3.65;3.05;;;;;;;;;;5065274;28;20028;-78
2022/11/14 09:26:32;;;;;;;4.97;2.38;;;;;;;;;;5067862;28;20032;-79
2022/11/14 09:28:59;;;;;;;13.85;2.78;;;;;;;;;;5059616;28;20117;-79
2022/11/14 09:31:26;;;;;;;7.22;2.28;;;;;;;;;;5062066;28;20036;-78
2022/11/14 09:33:52;;;;;;;2.92;2.38;;;;;;;;;;5064879;28;20024;-78
2022/11/14 09:36:18;;;;;;;4.00;2.35;;;;;;;;;;5064928;28;20025;-79
2022/11/14 09:38:45;;;;;;;2.85;2.60;;;;;;;;;;5062134;28;20047;-79
2022/11/14 09:41:22;;;;;;;3.20;2.40;;;;;;;;;;5063078;28;20032;-79
2022/11/14 09:43:48;;;;;;;4.13;2.42;;;;;;;;;;5062498;28;20078;-79
2022/11/14 09:46:21;;;;;;;4.15;2.95;;;;;;;;;;5062321;28;20117;-79
2022/11/14 09:48:47;;;;;;;4.95;3.40;;;;;;;;;;5061817;28;20037;-79
2022/11/14 09:51:21;;;;;;;3.70;2.58;;;;;;;;;;5057617;28;20101;-79
2022/11/14 09:54:06;;;;;;;5.80;2.75;;;;;;;;;;5063390;28;20048;-79
2022/11/14 09:56:32;;;;;;;4.28;2.92;;;;;;;;;;5062762;28;20127;-80
2022/11/14 09:58:58;;;;;;;4.97;2.85;;;;;;;;;;5064394;28;20036;-80
2022/11/14 10:01:24;;;;;;;5.13;2.78;;;;;;;;;;5060251;28;20066;-79
2022/11/14 10:04:03;;;;;;;4.40;2.80;;;;;;;;;;5063486;28;20032;-79
2022/11/14 10:06:34;;;;;;;5.18;3.20;;;;;;;;;;5077510;28;20035;-79
2022/11/14 10:09:19;;;;;;;4.95;2.83;;;;;;;;;;5064711;28;20028;-78
2022/11/14 10:12:04;;;;;;;6.20;3.10;;;;;;;;;;5080103;28;20039;-79
2022/11/14 10:14:33;;;;;;;6.47;2.78;;;;;;;;;;5075014;28;20028;-78
2022/11/14 10:17:18;;;;;;;5.28;2.88;;;;;;;;;;5063162;28;20029;-80
2022/11/14 10:20:03;;;;;;;5.22;2.97;;;;;;;;;;5061156;28;20054;-79
2022/11/14 10:22:48;;;;;;;5.07;2.80;;;;;;;;;;5059907;28;20467;-79
2022/11/14 10:25:16;;;;;;;5.97;2.80;;;;;;;;;;5063946;28;20036;-79
2022/11/14 10:27:48;;;;;;;9.98;3.22;;;;;;;;;;5062643;28;20844;-79
2022/11/14 10:30:16;;;;;;;4.82;3.10;;;;;;;;;;5062779;28;20028;-78
2022/11/14 10:33:00;;;;;;;5.53;3.28;;;;;;;;;;5080829;28;20772;-77
2022/11/14 10:35:37;;;;;;;8.18;3.85;;;;;;;;;;5063690;28;20074;-78
2022/11/14 10:38:08;;;;;;;8.70;4.40;;;;;;;;;;5060350;28;20074;-80
2022/11/14 10:40:47;;;;;;;7.82;3.47;;;;;;;;;;5061076;28;20039;-78
2022/11/14 10:43:25;;;;;;;6.63;3.83;;;;;;;;;;5063892;28;20105;-78
2022/11/14 10:45:59;;;;;;;11.55;3.92;;;;;;;;;;5078996;28;20092;-79
2022/11/14 10:48:25;;;;;;;6.75;3.55;;;;;;;;;;5077162;28;20089;-78
2022/11/14 10:50:54;;;;;;;5.68;3.38;;;;;;;;;;5062686;28;20040;-79
2022/11/14 10:53:28;;;;;;;7.30;3.58;;;;;;;;;;5075052;28;20078;-79
2022/11/14 10:55:55;;;;;;;5.93;3.55;;;;;;;;;;5079172;28;20393;-79
2022/11/14 10:58:22;;;;;;;5.30;3.90;;;;;;;;;;5065068;28;20043;-78
2022/11/14 11:00:48;;;;;;;4.50;2.47;;;;;;;;;;5077586;28;20029;-79
2022/11/14 11:03:14;;;;;;;3.50;2.80;;;;;;;;;;5062945;28;20029;-78
2022/11/14 11:05:53;;;;;;;6.47;2.60;;;;;;;;;;5075440;28;20544;-79
2022/11/14 11:11:30;;;;;;;3.97;2.30;;;;;;;;;;5063154;28;20039;-78
2022/11/14 11:13:58;;;;;;;5.68;2.60;;;;;;;;;;5062906;28;20016;-79
2022/11/14 11:16:26;;;;;;;4.70;2.72;;;;;;;;;;5077643;28;20055;-77
2022/11/14 11:18:52;;;;;;;6.07;2.33;;;;;;;;;;5060690;28;20571;-79
2022/11/14 11:21:22;;;;;;;4.25;2.40;;;;;;;;;;5062571;28;20037;-82
2022/11/14 11:23:48;;;;;;;3.35;2.20;;;;;;;;;;5060561;28;20033;-79
2022/11/14 11:26:19;;;;;;;2.53;2.13;;;;;;;;;;5062751;28;20510;-78
2022/11/14 11:29:00;;;;;;;3.58;2.45;;;;;;;;;;5062635;28;20493;-80
2022/11/14 11:31:26;;;;;;;3.28;2.00;;;;;;;;;;5062822;28;20025;-77
2022/11/14 11:33:53;;;;;;;4.15;2.05;;;;;;;;;;5063683;28;20020;-78
2022/11/14 11:36:21;;;;;;;3.88;1.90;;;;;;;;;;5062946;28;20101;-77
2022/11/14 11:38:48;;;;;;;4.22;2.92;;;;;;;;;;5063162;28;20028;-78
2022/11/14 11:41:25;;;;;;;3.35;2.13;;;;;;;;;;5063065;28;20039;-77
2022/11/14 11:44:03;;;;;;;4.70;1.83;;;;;;;;;;5061824;28;20389;-77
2022/11/14 11:46:44;;;;;;;3.53;1.70;;;;;;;;;;5063919;28;20033;-77
2022/11/14 11:49:17;;;;;;;1.77;1.60;;;;;;;;;;5076111;28;20036;-77
2022/11/14 11:51:45;;;;;;;3.40;1.95;;;;;;;;;;5062736;28;20031;-78
2022/11/14 11:54:24;;;;;;;5.70;2.10;;;;;;;;;;5060807;28;20497;-77
2022/11/14 11:56:54;;;;;;;5.20;2.22;;;;;;;;;;5060652;28;20021;-77
2022/11/14 11:59:20;;;;;;;3.63;2.00;;;;;;;;;;5061569;28;20036;-76
2022/11/14 12:01:47;;;;;;;4.53;1.80;;;;;;;;;;5062686;28;20040;-78
2022/11/14 12:04:13;;;;;;;2.28;1.80;;;;;;;;;;5074953;28;20099;-77
2022/11/14 12:06:59;;;;;;;4.78;2.00;;;;;;;;;;5062915;28;20032;-80
2022/11/14 12:09:28;;;;;;;2.25;1.70;;;;;;;;;;5070078;28;20036;-79
2022/11/14 12:11:58;;;;;;;3.33;1.80;;;;;;;;;;5061346;28;20024;-81
2022/11/14 12:14:39;;;;;;;4.07;2.38;;;;;;;;;;5061413;28;20024;-80
2022/11/14 12:17:14;;;;;;;2.53;1.73;;;;;;;;;;5058101;28;20040;-79
2022/11/14 12:19:48;;;;;;;4.35;1.98;;;;;;;;;;5077906;28;20401;-79
2022/11/14 12:22:33;;;;;;;3.80;1.93;;;;;;;;;;5060067;28;20028;-79
2022/11/14 12:25:18;;;;;;;3.05;1.60;;;;;;;;;;5071436;28;20113;-78
2022/11/14 12:27:54;;;;;;;2.72;1.60;;;;;;;;;;5061357;28;20117;-79
2022/11/14 12:30:22;;;;;;;1.60;1.50;;;;;;;;;;5055796;28;20048;-78
2022/11/14 12:32:48;;;;;;;3.08;1.60;;;;;;;;;;5061041;28;20033;-78
2022/11/14 12:35:17;;;;;;;2.30;1.67;;;;;;;;;;5061341;28;20520;-79
2022/11/14 12:37:44;;;;;;;2.38;1.80;;;;;;;;;;5075503;28;20753;-79
2022/11/14 12:40:30;;;;;;;2.42;1.45;;;;;;;;;;5074088;28;20486;-78
2022/11/14 12:42:58;;;;;;;2.17;1.30;;;;;;;;;;5061612;28;20606;-78
2022/11/14 12:45:39;;;;;;;3.30;1.42;;;;;;;;;;5072004;28;20062;-78
2022/11/14 12:48:20;;;;;;;3.28;1.60;;;;;;;;;;5060925;28;20528;-80
2022/11/14 12:50:46;;;;;;;3.42;2.83;;;;;;;;;;5060625;28;20442;-79
2022/11/14 12:53:36;;;;;;;2.03;1.80;;;;;;;;;;5059571;28;20028;-76
2022/11/14 12:56:05;;;;;;;4.03;1.80;;;;;;;;;;5059341;28;20029;-76
2022/11/14 12:58:34;;;;;;;2.38;1.58;;;;;;;;;;5076945;28;20108;-78
2022/11/14 13:01:07;;;;;;;2.10;1.90;;;;;;;;;;5065135;28;20024;-81
2022/11/14 13:03:40;;;;;;;4.70;3.20;;;;;;;;;;5065188;28;20029;-79
2022/11/14 13:06:11;;;;;;;5.35;2.50;;;;;;;;;;5066910;28;20389;-78
2022/11/14 13:09:06;;;;;;;3.50;1.55;;;;;;;;;;5067307;28;20032;-81
2022/11/14 13:21:44;;;;;;;2.55;1.58;;;;;;;;;;5059457;28;20064;-79
2022/11/14 13:22:40;;;;;;;2.05;1.85;;;;;;;;;;5063412;28;20046;-81
2022/11/14 13:25:06;;;;;;;2.88;1.98;;;;;;;;;;5078423;28;20032;-79
2022/11/14 13:27:33;;;;;;;3.13;1.75;;;;;;;;;;5065537;28;20135;-80
2022/11/14 13:30:07;;;;;;;2.67;1.65;;;;;;;;;;5067608;28;20059;-86
2022/11/14 13:32:43;;;;;;;2.47;1.92;;;;;;;;;;5084055;28;20385;-80
2022/11/14 13:35:22;;;;;;;3.53;1.63;;;;;;;;;;5084064;28;20028;-81
2022/11/14 13:38:06;;;;;;;2.83;1.60;;;;;;;;;;5070448;28;20028;-80
2022/11/14 13:40:32;;;;;;;2.05;1.70;;;;;;;;;;5081818;28;20032;-80
2022/11/14 13:43:02;;;;;;;2.90;1.50;;;;;;;;;;5069162;28;20037;-80
2022/11/14 13:45:31;;;;;;;4.07;1.40;;;;;;;;;;5065908;28;20047;-81
2022/11/14 13:48:09;;;;;;;3.10;1.73;;;;;;;;;;5069397;28;20025;-83
2022/11/14 13:50:36;;;;;;;1.77;1.52;;;;;;;;;;5067008;28;20029;-81
2022/11/14 13:53:11;;;;;;;3.38;1.65;;;;;;;;;;5067102;28;20038;-81
2022/11/14 13:56:16;;;;;;;1.73;1.55;;;;;;;;;;5083079;28;20107;-84
2022/11/14 13:58:42;;;;;;;2.95;1.40;;;;;;;;;;5042936;28;20091;-83
2022/11/14 14:01:15;;;;;;;6.28;2.35;;;;;;;;;;5022984;28;20041;-79
2022/11/14 14:03:57;;;;;;;2.83;1.67;;;;;;;;;;5042057;28;20044;-84
2022/11/14 14:06:23;;;;;;;5.25;1.40;;;;;;;;;;5063288;28;20033;-82
2022/11/14 14:08:56;;;;;;;3.28;1.58;;;;;;;;;;5065985;28;20036;-82
2022/11/14 14:11:28;;;;;;;1.63;1.52;;;;;;;;;;5079131;28;20029;-82
2022/11/14 14:13:54;;;;;;;2.70;1.65;;;;;;;;;;5065152;28;20103;-82
2022/11/14 14:16:33;;;;;;;3.42;1.42;;;;;;;;;;5065719;28;20016;-82
2022/11/14 14:18:59;;;;;;;1.40;1.30;;;;;;;;;;5067333;28;20044;-84
2022/11/14 14:21:25;;;;;;;3.67;1.58;;;;;;;;;;5066097;28;20029;-85
2022/11/14 14:23:51;;;;;;;1.45;1.27;;;;;;;;;;5062742;28;20111;-82
2022/11/14 14:26:17;;;;;;;4.15;1.58;;;;;;;;;;5060923;28;20104;-80
2022/11/14 14:29:02;;;;;;;1.60;1.50;;;;;;;;;;5063057;28;20628;-84
2022/11/14 14:31:46;;;;;;;3.28;1.55;;;;;;;;;;5070741;28;20098;-86
2022/11/14 14:34:21;;;;;;;2.80;1.70;;;;;;;;;;5068365;28;20067;-87
2022/11/14 14:36:55;;;;;;;3.15;1.40;;;;;;;;;;5066702;28;20108;-86
2022/11/14 14:39:24;;;;;;;2.83;1.40;;;;;;;;;;5080939;28;20028;-83
2022/11/14 14:41:50;;;;;;;2.58;1.50;;;;;;;;;;5084838;28;20029;-86
2022/11/14 14:44:25;;;;;;;1.75;1.45;;;;;;;;;;5068506;28;20028;-81
2022/11/14 14:46:51;;;;;;;4.75;2.10;;;;;;;;;;5065750;28;20056;-83
2022/11/14 14:49:19;;;;;;;3.38;1.75;;;;;;;;;;5068426;28;20069;-86
2022/11/14 14:51:45;;;;;;;4.95;1.85;;;;;;;;;;5071804;28;20028;-86
2022/11/14 14:54:25;;;;;;;7.22;1.75;;;;;;;;;;5067413;28;20024;-83
2022/11/14 14:56:52;;;;;;;1.63;1.52;;;;;;;;;;5076856;28;20033;-85
2022/11/14 14:59:21;;;;;;;1.85;1.50;;;;;;;;;;5075050;28;20052;-80
2022/11/14 15:01:47;;;;;;;1.60;1.50;;;;;;;;;;5075129;28;20051;-83
2022/11/14 15:04:15;;;;;;;1.50;1.40;;;;;;;;;;5076843;28;20028;-83